createdAt,value
2018-01-10T00:00:14.422Z,24.30
2018-01-10T00:01:14.422Z,24.30
2018-01-10T00:02:14.396Z,24.30
2018-01-10T00:03:14.420Z,23.60
2018-01-10T00:04:14.355Z,23.60
2018-01-10T00:05:14.423Z,23.60
2018-01-10T00:06:14.357Z,23.60
2018-01-10T00:07:14.425Z,23.60
2018-01-10T00:08:14.355Z,23.60
2018-01-10T00:09:14.424Z,23.60
2018-01-10T00:10:14.363Z,23.60
2018-01-10T00:11:14.430Z,23.60
2018-01-10T00:12:14.429Z,23.60
2018-01-10T00:13:14.419Z,23.00
2018-01-10T00:14:14.350Z,23.00
2018-01-10T00:15:14.388Z,23.00
2018-01-10T00:16:14.384Z,23.00
2018-01-10T00:17:14.420Z,23.00
2018-01-10T00:18:14.426Z,23.00
2018-01-10T00:19:14.426Z,23.00
2018-01-10T00:20:14.422Z,23.00
2018-01-10T00:21:14.417Z,23.00
2018-01-10T00:22:14.421Z,23.00
2018-01-10T00:23:14.384Z,23.30
2018-01-10T00:24:14.397Z,23.30
2018-01-10T00:25:14.487Z,23.30
2018-01-10T00:26:14.379Z,23.30
2018-01-10T00:27:14.370Z,23.30
2018-01-10T00:28:14.437Z,23.30
2018-01-10T00:29:14.438Z,23.30
2018-01-10T00:30:14.476Z,23.30
2018-01-10T00:31:14.444Z,23.30
2018-01-10T00:32:14.445Z,23.30
2018-01-10T00:33:14.408Z,21.70
2018-01-10T00:34:14.425Z,21.70
2018-01-10T00:35:14.348Z,21.70
2018-01-10T00:36:14.445Z,21.70
2018-01-10T00:37:14.396Z,21.70
2018-01-10T00:38:14.348Z,21.70
2018-01-10T00:39:14.438Z,21.70
2018-01-10T00:40:14.399Z,21.70
2018-01-10T00:41:14.438Z,21.70
2018-01-10T00:42:14.370Z,21.70
2018-01-10T00:43:14.385Z,19.40
2018-01-10T00:44:14.382Z,19.40
2018-01-10T00:45:14.445Z,19.40
2018-01-10T00:46:14.378Z,19.40
2018-01-10T00:47:14.451Z,19.40
2018-01-10T00:48:14.385Z,19.40
2018-01-10T00:49:14.427Z,19.40
2018-01-10T00:50:14.392Z,19.40
2018-01-10T00:51:14.456Z,19.40
2018-01-10T00:52:14.386Z,19.40
2018-01-10T00:53:14.315Z,18.30
2018-01-10T00:54:14.355Z,18.30
2018-01-10T00:55:14.388Z,18.30
2018-01-10T00:56:14.413Z,18.30
2018-01-10T00:57:14.348Z,18.30
2018-01-10T00:58:14.440Z,18.30
2018-01-10T00:59:14.437Z,18.30
2018-01-10T01:00:14.440Z,18.30
2018-01-10T01:01:14.437Z,18.30
2018-01-10T01:02:14.319Z,18.30
2018-01-10T01:03:14.437Z,18.30
2018-01-10T01:04:14.546Z,18.80
2018-01-10T01:05:14.384Z,18.80
2018-01-10T01:06:14.459Z,18.80
2018-01-10T01:07:14.452Z,18.80
2018-01-10T01:08:14.396Z,18.80
2018-01-10T01:09:14.464Z,18.80
2018-01-10T01:10:14.396Z,18.80
2018-01-10T01:11:14.465Z,18.80
2018-01-10T01:12:14.465Z,18.80
2018-01-10T01:13:14.396Z,18.80
2018-01-10T01:14:14.428Z,16.00
2018-01-10T01:15:14.453Z,16.00
2018-01-10T01:16:14.332Z,16.00
2018-01-10T01:17:14.340Z,16.00
2018-01-10T01:18:14.388Z,16.00
2018-01-10T01:19:14.396Z,16.00
2018-01-10T01:20:14.389Z,16.00
2018-01-10T01:21:14.422Z,16.00
2018-01-10T01:22:14.361Z,16.00
2018-01-10T01:23:14.457Z,16.00
2018-01-10T01:24:14.343Z,17.30
2018-01-10T01:25:14.455Z,17.30
2018-01-10T01:26:14.463Z,17.30
2018-01-10T01:27:14.340Z,17.30
2018-01-10T01:28:14.429Z,17.30
2018-01-10T01:29:14.343Z,17.30
2018-01-10T01:30:14.353Z,17.30
2018-01-10T01:31:14.432Z,17.30
2018-01-10T01:32:14.444Z,17.30
2018-01-10T01:33:14.344Z,17.30
2018-01-10T01:34:14.343Z,16.10
2018-01-10T01:35:14.304Z,16.10
2018-01-10T01:36:14.383Z,16.10
2018-01-10T01:37:14.348Z,16.10
2018-01-10T01:38:14.349Z,16.10
2018-01-10T01:39:14.405Z,16.10
2018-01-10T01:40:14.402Z,16.10
2018-01-10T01:41:14.389Z,16.10
2018-01-10T01:42:14.364Z,16.10
2018-01-10T01:43:14.306Z,16.10
2018-01-10T01:44:14.395Z,15.80
2018-01-10T01:45:14.350Z,15.80
2018-01-10T01:46:14.393Z,15.80
2018-01-10T01:47:14.481Z,15.80
2018-01-10T01:48:14.414Z,15.80
2018-01-10T01:49:14.390Z,15.80
2018-01-10T01:50:14.486Z,15.80
2018-01-10T01:51:14.457Z,15.80
2018-01-10T01:52:14.525Z,15.80
2018-01-10T01:53:14.484Z,15.80
2018-01-10T01:54:14.422Z,12.99
2018-01-10T01:55:14.494Z,12.99
2018-01-10T01:56:14.490Z,12.99
2018-01-10T01:57:14.489Z,12.99
2018-01-10T01:58:14.424Z,12.99
2018-01-10T01:59:14.428Z,12.99
2018-01-10T02:00:14.495Z,12.99
2018-01-10T02:01:14.427Z,12.99
2018-01-10T02:02:14.494Z,12.99
2018-01-10T02:03:14.494Z,12.99
2018-01-10T02:04:14.413Z,11.70
2018-01-10T02:05:14.491Z,11.70
2018-01-10T02:06:14.492Z,11.70
2018-01-10T02:07:14.416Z,11.70
2018-01-10T02:08:14.398Z,11.70
2018-01-10T02:09:14.364Z,11.70
2018-01-10T02:10:14.449Z,11.70
2018-01-10T02:11:14.495Z,11.70
2018-01-10T02:12:14.493Z,11.70
2018-01-10T02:13:14.486Z,11.70
2018-01-10T02:14:14.503Z,13.90
2018-01-10T02:15:14.440Z,13.90
2018-01-10T02:16:14.500Z,13.90
2018-01-10T02:17:14.505Z,13.90
2018-01-10T02:18:14.505Z,13.90
2018-01-10T02:19:14.434Z,13.90
2018-01-10T02:20:14.507Z,13.90
2018-01-10T02:21:14.442Z,13.90
2018-01-10T02:22:14.466Z,13.90
2018-01-10T02:23:14.442Z,13.90
2018-01-10T02:24:14.515Z,15.50
2018-01-10T02:25:14.463Z,15.50
2018-01-10T02:26:14.504Z,15.50
2018-01-10T02:27:14.438Z,15.50
2018-01-10T02:28:14.516Z,15.50
2018-01-10T02:29:14.513Z,15.50
2018-01-10T02:30:14.511Z,15.50
2018-01-10T02:31:14.446Z,15.50
2018-01-10T02:32:14.509Z,15.50
2018-01-10T02:33:14.451Z,15.50
2018-01-10T02:34:14.503Z,15.20
2018-01-10T02:35:14.465Z,15.20
2018-01-10T02:37:14.512Z,15.20
2018-01-10T02:38:14.508Z,15.20
2018-01-10T02:39:14.417Z,15.20
2018-01-10T02:40:14.439Z,15.20
2018-01-10T02:41:14.427Z,15.20
2018-01-10T02:42:14.423Z,15.20
2018-01-10T02:43:14.505Z,15.20
2018-01-10T02:44:14.545Z,14.10
2018-01-10T02:45:14.459Z,14.10
2018-01-10T02:46:14.531Z,14.10
2018-01-10T02:47:14.455Z,14.10
2018-01-10T02:48:14.523Z,14.10
2018-01-10T02:49:14.523Z,14.10
2018-01-10T02:50:14.459Z,14.10
2018-01-10T02:51:14.453Z,14.10
2018-01-10T02:52:14.520Z,14.10
2018-01-10T02:53:14.458Z,14.10
2018-01-10T02:54:14.523Z,13.10
2018-01-10T02:55:14.526Z,13.10
2018-01-10T02:56:14.457Z,13.10
2018-01-10T02:57:14.533Z,13.10
2018-01-10T02:58:14.468Z,13.10
2018-01-10T02:59:14.466Z,13.10
2018-01-10T03:00:14.528Z,13.10
2018-01-10T03:01:14.464Z,13.10
2018-01-10T03:02:14.530Z,13.10
2018-01-10T03:03:14.529Z,13.10
2018-01-10T03:04:14.433Z,13.60
2018-01-10T03:05:14.518Z,13.60
2018-01-10T03:06:14.415Z,13.60
2018-01-10T03:07:14.519Z,13.60
2018-01-10T03:08:14.468Z,13.60
2018-01-10T03:09:14.442Z,13.60
2018-01-10T03:10:14.530Z,13.60
2018-01-10T03:11:14.454Z,13.60
2018-01-10T03:12:14.445Z,13.60
2018-01-10T03:13:14.525Z,13.60
2018-01-10T03:14:14.485Z,14.40
2018-01-10T03:15:14.485Z,14.40
2018-01-10T03:16:14.394Z,14.40
2018-01-10T03:17:14.482Z,14.40
2018-01-10T03:18:14.440Z,14.40
2018-01-10T03:19:14.441Z,14.40
2018-01-10T03:20:14.441Z,14.40
2018-01-10T03:21:14.394Z,14.40
2018-01-10T03:22:14.444Z,14.40
2018-01-10T03:23:14.395Z,14.40
2018-01-10T03:24:14.475Z,15.30
2018-01-10T03:25:14.568Z,15.30
2018-01-10T03:26:14.544Z,15.30
2018-01-10T03:27:14.483Z,15.30
2018-01-10T03:28:14.549Z,15.30
2018-01-10T03:29:14.546Z,15.30
2018-01-10T03:30:14.548Z,15.30
2018-01-10T03:31:14.546Z,15.30
2018-01-10T03:32:14.547Z,15.30
2018-01-10T03:33:14.482Z,15.30
2018-01-10T03:34:14.484Z,16.00
2018-01-10T03:35:14.413Z,16.00
2018-01-10T03:36:14.507Z,16.00
2018-01-10T03:37:14.512Z,16.00
2018-01-10T03:38:14.423Z,16.00
2018-01-10T03:39:14.481Z,16.00
2018-01-10T03:40:14.471Z,16.00
2018-01-10T03:41:14.441Z,16.00
2018-01-10T03:42:14.424Z,16.00
2018-01-10T03:43:14.531Z,16.00
2018-01-10T03:44:14.444Z,17.60
2018-01-10T03:45:14.553Z,17.60
2018-01-10T03:46:14.545Z,17.60
2018-01-10T03:47:14.462Z,17.60
2018-01-10T03:48:14.553Z,17.60
2018-01-10T03:49:14.432Z,17.60
2018-01-10T03:50:14.526Z,17.60
2018-01-10T03:51:14.464Z,17.60
2018-01-10T03:52:14.543Z,17.60
2018-01-10T03:53:14.466Z,17.60
2018-01-10T03:54:14.513Z,14.10
2018-01-10T03:55:14.455Z,14.10
2018-01-10T03:56:14.540Z,14.10
2018-01-10T03:57:14.540Z,14.10
2018-01-10T03:58:14.494Z,14.10
2018-01-10T03:59:14.460Z,14.10
2018-01-10T04:00:14.488Z,14.10
2018-01-10T04:01:14.515Z,14.10
2018-01-10T04:02:14.458Z,14.10
2018-01-10T04:03:14.525Z,14.10
2018-01-10T04:04:14.474Z,15.40
2018-01-10T04:05:14.390Z,15.40
2018-01-10T04:06:14.493Z,15.40
2018-01-10T04:07:14.438Z,15.40
2018-01-10T04:08:14.478Z,15.40
2018-01-10T04:09:14.387Z,15.40
2018-01-10T04:10:14.395Z,15.40
2018-01-10T04:11:14.396Z,15.40
2018-01-10T04:12:14.497Z,15.40
2018-01-10T04:13:14.398Z,15.40
2018-01-10T04:14:14.565Z,19.50
2018-01-10T04:15:14.560Z,19.50
2018-01-10T04:16:14.474Z,19.50
2018-01-10T04:17:14.480Z,19.50
2018-01-10T04:18:14.504Z,19.50
2018-01-10T04:19:14.486Z,19.50
2018-01-10T04:20:14.485Z,19.50
2018-01-10T04:21:14.500Z,19.50
2018-01-10T04:22:14.441Z,19.50
2018-01-10T04:23:14.468Z,19.50
2018-01-10T04:24:14.536Z,20.60
2018-01-10T04:25:14.485Z,20.60
2018-01-10T04:26:14.487Z,20.60
2018-01-10T04:27:14.490Z,20.60
2018-01-10T04:28:14.567Z,20.60
2018-01-10T04:29:14.468Z,20.60
2018-01-10T04:30:14.579Z,20.60
2018-01-10T04:31:14.576Z,20.60
2018-01-10T04:32:14.516Z,20.60
2018-01-10T04:33:14.489Z,20.60
2018-01-10T04:34:14.575Z,20.50
2018-01-10T04:35:14.470Z,20.50
2018-01-10T04:36:14.576Z,20.50
2018-01-10T04:37:14.474Z,20.50
2018-01-10T04:38:14.453Z,20.50
2018-01-10T04:39:14.537Z,20.50
2018-01-10T04:40:14.456Z,20.50
2018-01-10T04:41:14.497Z,20.50
2018-01-10T04:42:14.540Z,20.50
2018-01-10T04:43:14.496Z,20.50
2018-01-10T04:44:14.504Z,21.00
2018-01-10T04:45:14.398Z,21.00
2018-01-10T04:46:14.500Z,21.00
2018-01-10T04:47:14.399Z,21.00
2018-01-10T04:48:14.493Z,21.00
2018-01-10T04:49:14.403Z,21.00
2018-01-10T04:50:14.407Z,21.00
2018-01-10T04:51:14.444Z,21.00
2018-01-10T04:52:14.462Z,21.00
2018-01-10T04:53:14.585Z,21.00
2018-01-10T04:54:14.530Z,19.99
2018-01-10T04:55:14.465Z,19.99
2018-01-10T04:56:14.594Z,19.99
2018-01-10T04:57:14.520Z,19.99
2018-01-10T04:58:14.587Z,19.99
2018-01-10T04:59:14.585Z,19.99
2018-01-10T05:00:14.464Z,19.99
2018-01-10T05:01:14.499Z,19.99
2018-01-10T05:02:14.552Z,19.99
2018-01-10T05:03:14.552Z,19.99
2018-01-10T05:04:14.581Z,21.00
2018-01-10T05:05:14.563Z,21.00
2018-01-10T05:06:14.560Z,21.00
2018-01-10T05:07:14.559Z,21.00
2018-01-10T05:08:14.469Z,21.00
2018-01-10T05:09:14.561Z,21.00
2018-01-10T05:10:14.533Z,21.00
2018-01-10T05:11:14.533Z,21.00
2018-01-10T05:12:14.560Z,21.00
2018-01-10T05:13:14.476Z,21.00
2018-01-10T05:14:14.467Z,18.70
2018-01-10T05:15:14.461Z,18.70
2018-01-10T05:16:14.472Z,18.70
2018-01-10T05:17:14.513Z,18.70
2018-01-10T05:18:14.512Z,18.70
2018-01-10T05:19:14.468Z,18.70
2018-01-10T05:20:14.634Z,18.70
2018-01-10T05:21:14.475Z,18.70
2018-01-10T05:22:14.520Z,18.70
2018-01-10T05:23:14.516Z,18.70
2018-01-10T05:24:14.618Z,18.99
2018-01-10T05:25:14.555Z,18.99
2018-01-10T05:26:14.621Z,18.99
2018-01-10T05:27:14.551Z,18.99
2018-01-10T05:28:14.619Z,18.99
2018-01-10T05:29:14.550Z,18.99
2018-01-10T05:30:14.632Z,18.99
2018-01-10T05:31:14.518Z,18.99
2018-01-10T05:32:14.618Z,18.99
2018-01-10T05:33:14.627Z,18.99
2018-01-10T05:34:14.554Z,20.90
2018-01-10T05:35:14.623Z,20.90
2018-01-10T05:36:14.555Z,20.90
2018-01-10T05:37:14.628Z,20.90
2018-01-10T05:38:14.556Z,20.90
2018-01-10T05:39:14.625Z,20.90
2018-01-10T05:40:14.560Z,20.90
2018-01-10T05:41:14.625Z,20.90
2018-01-10T05:42:14.563Z,20.90
2018-01-10T05:43:14.629Z,20.90
2018-01-10T05:44:14.631Z,19.10
2018-01-10T05:45:14.630Z,19.10
2018-01-10T05:46:14.570Z,19.10
2018-01-10T05:47:14.631Z,19.10
2018-01-10T05:48:14.567Z,19.10
2018-01-10T05:49:14.633Z,19.10
2018-01-10T05:50:14.568Z,19.10
2018-01-10T05:51:14.635Z,19.10
2018-01-10T05:52:14.567Z,19.10
2018-01-10T05:53:14.571Z,19.10
2018-01-10T05:54:14.721Z,16.90
2018-01-10T05:55:14.639Z,16.90
2018-01-10T05:56:14.575Z,16.90
2018-01-10T05:57:14.642Z,16.90
2018-01-10T05:58:14.570Z,16.90
2018-01-10T05:59:14.573Z,16.90
2018-01-10T06:00:14.573Z,16.90
2018-01-10T06:01:14.529Z,16.90
2018-01-10T06:02:14.616Z,16.90
2018-01-10T06:03:14.592Z,16.90
2018-01-10T06:04:14.648Z,20.20
2018-01-10T06:05:14.575Z,20.20
2018-01-10T06:06:14.662Z,20.20
2018-01-10T06:07:14.577Z,20.20
2018-01-10T06:08:14.643Z,20.20
2018-01-10T06:09:14.615Z,20.20
2018-01-10T06:10:14.580Z,20.20
2018-01-10T06:11:14.587Z,20.20
2018-01-10T06:12:14.647Z,20.20
2018-01-10T06:13:14.579Z,20.20
2018-01-10T06:14:14.514Z,16.50
2018-01-10T06:15:14.533Z,16.50
2018-01-10T06:16:14.632Z,16.50
2018-01-10T06:17:14.600Z,16.50
2018-01-10T06:18:14.566Z,16.50
2018-01-10T06:19:14.553Z,16.50
2018-01-10T06:20:14.596Z,16.50
2018-01-10T06:21:14.589Z,16.50
2018-01-10T06:22:14.555Z,16.50
2018-01-10T06:23:14.560Z,16.50
2018-01-10T06:24:14.583Z,15.70
2018-01-10T06:25:14.656Z,15.70
2018-01-10T06:26:14.582Z,15.70
2018-01-10T06:27:14.590Z,15.70
2018-01-10T06:28:14.591Z,15.70
2018-01-10T06:29:14.655Z,15.70
2018-01-10T06:30:14.590Z,15.70
2018-01-10T06:31:14.655Z,15.70
2018-01-10T06:32:14.596Z,15.70
2018-01-10T06:33:14.620Z,15.70
2018-01-10T06:34:14.655Z,14.80
2018-01-10T06:35:14.593Z,14.80
2018-01-10T06:36:14.660Z,14.80
2018-01-10T06:37:14.595Z,14.80
2018-01-10T06:38:14.661Z,14.80
2018-01-10T06:39:14.598Z,14.80
2018-01-10T06:40:14.596Z,14.80
2018-01-10T06:41:14.594Z,14.80
2018-01-10T06:42:14.661Z,14.80
2018-01-10T06:43:14.660Z,14.80
2018-01-10T06:44:14.601Z,15.50
2018-01-10T06:45:14.650Z,15.50
2018-01-10T06:46:14.617Z,15.50
2018-01-10T06:47:14.551Z,15.50
2018-01-10T06:48:14.654Z,15.50
2018-01-10T06:49:14.554Z,15.50
2018-01-10T06:50:14.615Z,15.50
2018-01-10T06:51:14.634Z,15.50
2018-01-10T06:52:14.615Z,15.50
2018-01-10T06:53:14.541Z,15.50
2018-01-10T06:54:14.608Z,13.40
2018-01-10T06:55:14.669Z,13.40
2018-01-10T06:56:14.638Z,13.40
2018-01-10T06:57:14.678Z,13.40
2018-01-10T06:58:14.669Z,13.40
2018-01-10T06:59:14.670Z,13.40
2018-01-10T07:00:14.610Z,13.40
2018-01-10T07:01:14.676Z,13.40
2018-01-10T07:02:14.618Z,13.40
2018-01-10T07:03:14.563Z,13.40
2018-01-10T07:04:14.610Z,14.70
2018-01-10T07:05:14.676Z,14.70
2018-01-10T07:06:14.678Z,14.70
2018-01-10T07:07:14.640Z,14.70
2018-01-10T07:08:14.676Z,14.70
2018-01-10T07:09:14.684Z,14.70
2018-01-10T07:10:14.609Z,14.70
2018-01-10T07:11:14.678Z,14.70
2018-01-10T07:12:14.679Z,14.70
2018-01-10T07:13:14.618Z,14.70
2018-01-10T07:14:14.667Z,13.40
2018-01-10T07:15:14.545Z,13.40
2018-01-10T07:16:14.604Z,13.40
2018-01-10T07:17:14.616Z,13.40
2018-01-10T07:18:14.592Z,13.40
2018-01-10T07:19:14.645Z,13.40
2018-01-10T07:20:14.645Z,13.40
2018-01-10T07:21:14.610Z,13.40
2018-01-10T07:22:14.634Z,13.40
2018-01-10T07:23:14.553Z,13.40
2018-01-10T07:24:14.624Z,16.40
2018-01-10T07:25:14.691Z,16.40
2018-01-10T07:26:14.625Z,16.40
2018-01-10T07:27:14.691Z,16.40
2018-01-10T07:28:14.630Z,16.40
2018-01-10T07:29:14.692Z,16.40
2018-01-10T07:30:14.626Z,16.40
2018-01-10T07:31:14.692Z,16.40
2018-01-10T07:32:14.627Z,16.40
2018-01-10T07:33:14.694Z,16.40
2018-01-10T07:34:14.629Z,16.40
2018-01-10T07:35:14.679Z,16.40
2018-01-10T07:36:14.633Z,16.40
2018-01-10T07:37:14.698Z,16.40
2018-01-10T07:38:14.657Z,16.40
2018-01-10T07:39:14.758Z,16.40
2018-01-10T07:40:14.699Z,16.40
2018-01-10T07:41:14.629Z,16.40
2018-01-10T07:42:14.633Z,16.40
2018-01-10T07:43:14.702Z,16.40
2018-01-10T07:44:14.633Z,17.40
2018-01-10T07:45:14.702Z,17.40
2018-01-10T07:46:14.699Z,17.40
2018-01-10T07:47:14.707Z,17.40
2018-01-10T07:48:14.701Z,17.40
2018-01-10T07:49:14.637Z,17.40
2018-01-10T07:50:14.705Z,17.40
2018-01-10T07:51:14.636Z,17.40
2018-01-10T07:52:14.707Z,17.40
2018-01-10T07:53:14.637Z,17.40
2018-01-10T07:54:14.656Z,17.00
2018-01-10T07:55:14.605Z,17.00
2018-01-10T07:56:14.607Z,17.00
2018-01-10T07:57:14.606Z,17.00
2018-01-10T07:58:14.562Z,17.00
2018-01-10T07:59:14.654Z,17.00
2018-01-10T08:00:14.562Z,17.00
2018-01-10T08:01:14.602Z,17.00
2018-01-10T08:02:14.608Z,17.00
2018-01-10T08:03:14.605Z,17.00
2018-01-10T08:04:14.562Z,19.20
2018-01-10T08:05:14.611Z,19.20
2018-01-10T08:06:14.608Z,19.20
2018-01-10T08:07:14.661Z,19.20
2018-01-10T08:08:14.608Z,19.20
2018-01-10T08:09:14.566Z,19.20
2018-01-10T08:10:14.664Z,19.20
2018-01-10T08:11:14.614Z,19.20
2018-01-10T08:12:14.612Z,19.20
2018-01-10T08:13:14.573Z,19.20
2018-01-10T08:14:14.664Z,19.20
2018-01-10T08:15:14.571Z,17.00
2018-01-10T08:16:14.573Z,17.00
2018-01-10T08:17:14.629Z,17.00
2018-01-10T08:18:14.571Z,17.00
2018-01-10T08:19:14.573Z,17.00
2018-01-10T08:20:14.626Z,17.00
2018-01-10T08:21:14.571Z,17.00
2018-01-10T08:22:14.672Z,17.00
2018-01-10T08:23:14.850Z,17.00
2018-01-10T08:24:14.672Z,17.00
2018-01-10T08:25:14.724Z,18.50
2018-01-10T08:26:14.810Z,18.50
2018-01-10T08:27:14.753Z,18.50
2018-01-10T08:28:14.660Z,18.50
2018-01-10T08:29:14.731Z,18.50
2018-01-10T08:30:14.725Z,18.50
2018-01-10T08:31:14.660Z,18.50
2018-01-10T08:32:14.746Z,18.50
2018-01-10T08:33:14.729Z,18.50
2018-01-10T08:34:14.727Z,18.50
2018-01-10T08:35:14.665Z,23.70
2018-01-10T08:36:14.729Z,23.70
2018-01-10T08:37:14.663Z,23.70
2018-01-10T08:38:14.730Z,23.70
2018-01-10T08:39:14.670Z,23.70
2018-01-10T08:40:14.731Z,23.70
2018-01-10T08:41:14.662Z,23.70
2018-01-10T08:42:14.736Z,23.70
2018-01-10T08:43:14.667Z,23.70
2018-01-10T08:44:14.670Z,23.70
2018-01-10T08:45:14.735Z,22.10
2018-01-10T08:46:14.691Z,22.10
2018-01-10T08:47:14.735Z,22.10
2018-01-10T08:48:14.672Z,22.10
2018-01-10T08:49:14.739Z,22.10
2018-01-10T08:50:14.670Z,22.10
2018-01-10T08:51:14.759Z,22.10
2018-01-10T08:52:14.674Z,22.10
2018-01-10T08:53:14.739Z,22.10
2018-01-10T08:54:14.672Z,22.10
2018-01-10T08:55:14.745Z,19.99
2018-01-10T08:56:14.673Z,19.99
2018-01-10T08:57:14.744Z,19.99
2018-01-10T08:58:14.743Z,19.99
2018-01-10T08:59:14.676Z,19.99
2018-01-10T09:00:14.744Z,19.99
2018-01-10T09:01:14.674Z,19.99
2018-01-10T09:02:14.747Z,19.99
2018-01-10T09:03:14.706Z,19.99
2018-01-10T09:04:14.768Z,19.99
2018-01-10T09:05:14.700Z,20.80
2018-01-10T09:06:14.738Z,20.80
2018-01-10T09:07:14.731Z,20.80
2018-01-10T09:08:14.720Z,20.80
2018-01-10T09:09:14.755Z,20.80
2018-01-10T09:10:14.637Z,20.80
2018-01-10T09:11:14.656Z,20.80
2018-01-10T09:12:14.650Z,20.80
2018-01-10T09:13:14.697Z,20.80
2018-01-10T09:14:14.703Z,20.80
2018-01-10T09:15:14.767Z,16.50
2018-01-10T09:16:14.690Z,16.50
2018-01-10T09:17:14.690Z,16.50
2018-01-10T09:18:14.756Z,16.50
2018-01-10T09:19:14.756Z,16.50
2018-01-10T09:20:14.716Z,16.50
2018-01-10T09:21:14.755Z,16.50
2018-01-10T09:22:14.697Z,16.50
2018-01-10T09:23:14.761Z,16.50
2018-01-10T09:24:14.694Z,16.50
2018-01-10T09:25:14.727Z,18.99
2018-01-10T09:26:14.728Z,18.99
2018-01-10T09:27:14.625Z,18.99
2018-01-10T09:28:14.748Z,18.99
2018-01-10T09:29:14.667Z,18.99
2018-01-10T09:30:14.752Z,18.99
2018-01-10T09:31:14.643Z,18.99
2018-01-10T09:32:14.729Z,18.99
2018-01-10T09:33:14.733Z,18.99
2018-01-10T09:34:14.712Z,18.99
2018-01-10T09:35:14.704Z,16.90
2018-01-10T09:36:14.773Z,16.90
2018-01-10T09:37:14.703Z,16.90
2018-01-10T09:38:14.766Z,16.90
2018-01-10T09:39:14.700Z,16.90
2018-01-10T09:40:14.705Z,16.90
2018-01-10T09:41:14.770Z,16.90
2018-01-10T09:42:14.705Z,16.90
2018-01-10T09:43:14.791Z,16.90
2018-01-10T09:44:14.771Z,16.90
2018-01-10T09:45:14.728Z,15.70
2018-01-10T09:46:14.772Z,15.70
2018-01-10T09:47:14.708Z,15.70
2018-01-10T09:48:14.777Z,15.70
2018-01-10T09:49:14.706Z,15.70
2018-01-10T09:50:14.773Z,15.70
2018-01-10T09:51:14.780Z,15.70
2018-01-10T09:52:14.708Z,15.70
2018-01-10T09:53:14.712Z,15.70
2018-01-10T09:54:14.783Z,15.70
2018-01-10T09:55:14.704Z,15.99
2018-01-10T09:56:14.777Z,15.99
2018-01-10T09:57:14.712Z,15.99
2018-01-10T09:58:14.778Z,15.99
2018-01-10T09:59:14.708Z,15.99
2018-01-10T10:00:14.779Z,15.99
2018-01-10T10:01:14.779Z,15.99
2018-01-10T10:02:14.717Z,15.99
2018-01-10T10:03:14.784Z,15.99
2018-01-10T10:04:14.787Z,15.99
2018-01-10T10:05:14.781Z,22.20
2018-01-10T10:06:14.716Z,22.20
2018-01-10T10:07:14.784Z,22.20
2018-01-10T10:08:14.720Z,22.20
2018-01-10T10:09:14.787Z,22.20
2018-01-10T10:10:14.720Z,22.20
2018-01-10T10:11:14.792Z,22.20
2018-01-10T10:12:14.724Z,22.20
2018-01-10T10:13:14.720Z,22.20
2018-01-10T10:14:14.788Z,22.20
2018-01-10T10:15:14.795Z,20.10
2018-01-10T10:16:14.724Z,20.10
2018-01-10T10:17:14.791Z,20.10
2018-01-10T10:18:14.724Z,20.10
2018-01-10T10:19:14.800Z,20.10
2018-01-10T10:20:14.792Z,20.10
2018-01-10T10:21:14.760Z,20.10
2018-01-10T10:22:14.794Z,20.10
2018-01-10T10:23:14.792Z,20.10
2018-01-10T10:24:14.728Z,20.10
2018-01-10T10:25:14.795Z,21.99
2018-01-10T10:26:14.797Z,21.99
2018-01-10T10:27:14.799Z,21.99
2018-01-10T10:28:14.729Z,21.99
2018-01-10T10:29:14.799Z,21.99
2018-01-10T10:30:14.827Z,21.99
2018-01-10T10:31:14.740Z,21.99
2018-01-10T10:32:14.800Z,21.99
2018-01-10T10:33:14.740Z,21.99
2018-01-10T10:34:14.799Z,21.99
2018-01-10T10:35:14.803Z,16.30
2018-01-10T10:36:14.803Z,16.30
2018-01-10T10:37:14.736Z,16.30
2018-01-10T10:39:14.738Z,16.30
2018-01-10T10:40:14.745Z,16.30
2018-01-10T10:41:14.805Z,16.30
2018-01-10T10:42:14.748Z,16.30
2018-01-10T10:43:14.808Z,16.30
2018-01-10T10:44:14.756Z,16.30
2018-01-10T10:45:14.828Z,13.20
2018-01-10T10:46:14.873Z,13.20
2018-01-10T10:47:14.809Z,13.20
2018-01-10T10:48:14.742Z,13.20
2018-01-10T10:49:14.739Z,13.20
2018-01-10T10:50:14.896Z,13.20
2018-01-10T10:51:14.812Z,13.20
2018-01-10T10:52:14.747Z,13.20
2018-01-10T10:53:14.818Z,13.20
2018-01-10T10:54:14.747Z,13.20
2018-01-10T10:55:14.696Z,12.50
2018-01-10T10:56:14.784Z,12.50
2018-01-10T10:57:14.778Z,12.50
2018-01-10T10:58:14.819Z,12.50
2018-01-10T10:59:14.809Z,12.50
2018-01-10T11:00:14.780Z,12.50
2018-01-10T11:01:14.804Z,12.50
2018-01-10T11:02:14.783Z,12.50
2018-01-10T11:03:14.680Z,12.50
2018-01-10T11:04:14.749Z,12.50
2018-01-10T11:05:14.759Z,12.10
2018-01-10T11:06:14.819Z,12.10
2018-01-10T11:07:15.032Z,12.10
2018-01-10T11:08:14.823Z,12.10
2018-01-10T11:09:14.761Z,12.10
2018-01-10T11:10:14.823Z,12.10
2018-01-10T11:11:14.755Z,12.10
2018-01-10T11:12:14.822Z,12.10
2018-01-10T11:13:14.796Z,12.10
2018-01-10T11:14:14.752Z,12.10
2018-01-10T11:15:14.716Z,13.70
2018-01-10T11:16:14.731Z,13.70
2018-01-10T11:17:14.788Z,13.70
2018-01-10T11:18:14.757Z,13.70
2018-01-10T11:19:14.689Z,13.70
2018-01-10T11:20:14.718Z,13.70
2018-01-10T11:22:14.694Z,13.70
2018-01-10T11:23:14.761Z,13.70
2018-01-10T11:24:14.726Z,13.70
2018-01-10T11:25:14.831Z,17.60
2018-01-10T11:26:14.767Z,17.60
2018-01-10T11:27:14.833Z,17.60
2018-01-10T11:28:14.764Z,17.60
2018-01-10T11:29:14.835Z,17.60
2018-01-10T11:30:14.835Z,17.60
2018-01-10T11:31:14.840Z,17.60
2018-01-10T11:32:14.770Z,17.60
2018-01-10T11:33:14.836Z,17.60
2018-01-10T11:34:14.769Z,17.60
2018-01-10T11:35:14.837Z,8.70
2018-01-10T11:36:14.763Z,8.70
2018-01-10T11:37:14.844Z,8.70
2018-01-10T11:38:14.779Z,8.70
2018-01-10T11:39:14.838Z,8.70
2018-01-10T11:40:14.769Z,8.70
2018-01-10T11:41:14.726Z,8.70
2018-01-10T11:42:14.773Z,8.70
2018-01-10T11:43:14.803Z,8.70
2018-01-10T11:44:14.841Z,8.70
2018-01-10T11:45:14.774Z,9.60
2018-01-10T11:46:14.848Z,9.60
2018-01-10T11:47:14.785Z,9.60
2018-01-10T11:48:14.843Z,9.60
2018-01-10T11:49:14.780Z,9.60
2018-01-10T11:50:14.858Z,9.60
2018-01-10T11:51:14.779Z,9.60
2018-01-10T11:52:14.846Z,9.60
2018-01-10T11:53:14.777Z,9.60
2018-01-10T11:54:14.848Z,9.60
2018-01-10T11:55:14.793Z,6.00
2018-01-10T11:56:14.740Z,6.00
2018-01-10T11:57:14.794Z,6.00
2018-01-10T11:58:14.793Z,6.00
2018-01-10T11:59:14.702Z,6.00
2018-01-10T12:00:14.799Z,6.00
2018-01-10T12:01:14.687Z,6.00
2018-01-10T12:02:14.704Z,6.00
2018-01-10T12:03:14.707Z,6.00
2018-01-10T12:04:14.752Z,6.00
2018-01-10T12:05:14.783Z,6.90
2018-01-10T12:06:14.854Z,6.90
2018-01-10T12:07:14.780Z,6.90
2018-01-10T12:08:14.854Z,6.90
2018-01-10T12:09:14.783Z,6.90
2018-01-10T12:10:14.856Z,6.90
2018-01-10T12:11:14.788Z,6.90
2018-01-10T12:12:14.859Z,6.90
2018-01-10T12:13:14.859Z,6.90
2018-01-10T12:14:14.786Z,6.90
2018-01-10T12:15:14.789Z,6.60
2018-01-10T12:16:14.761Z,6.60
2018-01-10T12:17:14.842Z,6.60
2018-01-10T12:18:14.918Z,6.60
2018-01-10T12:19:14.859Z,6.60
2018-01-10T12:20:14.750Z,6.60
2018-01-10T12:21:14.790Z,6.60
2018-01-10T12:22:14.851Z,6.60
2018-01-10T12:23:14.855Z,6.60
2018-01-10T12:24:14.747Z,6.60
2018-01-10T12:25:14.793Z,5.20
2018-01-10T12:26:14.843Z,5.20
2018-01-10T12:27:14.813Z,5.20
2018-01-10T12:28:14.726Z,5.20
2018-01-10T12:29:14.728Z,5.20
2018-01-10T12:30:14.725Z,5.20
2018-01-10T12:31:14.778Z,5.20
2018-01-10T12:32:14.798Z,5.20
2018-01-10T12:33:14.842Z,5.20
2018-01-10T12:34:14.817Z,5.20
2018-01-10T12:35:14.762Z,4.70
2018-01-10T12:36:14.829Z,4.70
2018-01-10T12:37:14.833Z,4.70
2018-01-10T12:38:14.780Z,4.70
2018-01-10T12:39:14.798Z,4.70
2018-01-10T12:40:14.801Z,4.70
2018-01-10T12:41:14.816Z,4.70
2018-01-10T12:42:14.803Z,4.70
2018-01-10T12:43:14.804Z,4.70
2018-01-10T12:44:14.856Z,4.70
2018-01-10T12:45:14.902Z,3.50
2018-01-10T12:46:14.809Z,3.50
2018-01-10T12:47:14.880Z,3.50
2018-01-10T12:48:14.811Z,3.50
2018-01-10T12:49:14.896Z,3.50
2018-01-10T12:50:14.813Z,3.50
2018-01-10T12:51:14.881Z,3.50
2018-01-10T12:52:14.810Z,3.50
2018-01-10T12:53:14.917Z,3.50
2018-01-10T12:54:14.882Z,3.50
2018-01-10T12:55:14.817Z,3.60
2018-01-10T12:56:14.816Z,3.60
2018-01-10T12:57:14.884Z,3.60
2018-01-10T12:58:14.840Z,3.60